Time;durP1;ratioP1;P1;durP2;ratioP2;P2;SDS_P1;SDS_P2;PMS_P1;PMS_P2;Temp;Humidity;BMP_temperature;BMP_pressure;BME280_temperature;BME280_humidity;BME280_pressure;Samples;Min_cycle;Max_cycle;Signal;HPM_P1;HPM_P2
2023/12/27 00:02:14;;;;;;;0.20;0.20;;;;;;;;;;5115137;28;20279;-76
2023/12/27 00:04:40;;;;;;;0.10;0.10;;;;;;;;;;5126766;28;20295;-75
2023/12/27 00:07:07;;;;;;;0.20;0.20;;;;;;;;;;5115005;28;20258;-76
2023/12/27 00:09:34;;;;;;;0.20;0.20;;;;;;;;;;5126623;28;20273;-76
2023/12/27 00:12:01;;;;;;;0.10;0.10;;;;;;;;;;5115060;28;20264;-76
2023/12/27 00:14:27;;;;;;;0.20;0.20;;;;;;;;;;5126870;28;20242;-76
2023/12/27 00:16:53;;;;;;;0.13;0.13;;;;;;;;;;5115262;28;20492;-76
2023/12/27 00:19:20;;;;;;;0.10;0.10;;;;;;;;;;5126656;28;20202;-76
2023/12/27 00:21:46;;;;;;;0.10;0.10;;;;;;;;;;5114264;28;20309;-76
2023/12/27 00:24:13;;;;;;;0.20;0.20;;;;;;;;;;5126294;28;20237;-76
2023/12/27 00:26:40;;;;;;;0.10;0.10;;;;;;;;;;5115013;28;20238;-76
2023/12/27 00:29:07;;;;;;;0.10;0.10;;;;;;;;;;5126078;28;20226;-76
2023/12/27 00:31:33;;;;;;;0.10;0.10;;;;;;;;;;5114913;28;20305;-76
2023/12/27 00:34:00;;;;;;;0.20;0.20;;;;;;;;;;5126273;28;20240;-76
2023/12/27 00:36:29;;;;;;;0.17;0.17;;;;;;;;;;5114936;28;20320;-76
2023/12/27 00:38:55;;;;;;;0.10;0.10;;;;;;;;;;5125812;28;20198;-75
2023/12/27 00:41:22;;;;;;;0.13;0.13;;;;;;;;;;5114910;28;20260;-75
2023/12/27 00:43:49;;;;;;;0.10;0.10;;;;;;;;;;5125694;28;20211;-76
2023/12/27 00:46:16;;;;;;;0.20;0.20;;;;;;;;;;5114705;28;20347;-76
2023/12/27 00:48:42;;;;;;;0.10;0.10;;;;;;;;;;5125480;28;20297;-76
2023/12/27 00:51:17;;;;;;;0.20;0.20;;;;;;;;;;5114707;28;20253;-75
2023/12/27 00:53:43;;;;;;;0.20;0.20;;;;;;;;;;5125734;28;20229;-76
2023/12/27 00:56:10;;;;;;;0.10;0.10;;;;;;;;;;5114511;28;20237;-75
2023/12/27 00:58:36;;;;;;;0.17;0.17;;;;;;;;;;5125224;28;20229;-76
2023/12/27 01:01:04;;;;;;;0.10;0.10;;;;;;;;;;5114519;28;20234;-76
2023/12/27 01:03:30;;;;;;;0.10;0.10;;;;;;;;;;5125060;28;20386;-75
2023/12/27 01:05:57;;;;;;;0.20;0.20;;;;;;;;;;5114534;28;20271;-75
2023/12/27 01:08:23;;;;;;;0.10;0.10;;;;;;;;;;5124925;28;20281;-75
2023/12/27 01:10:50;;;;;;;0.20;0.20;;;;;;;;;;5114525;28;20258;-75
2023/12/27 01:13:16;;;;;;;0.10;0.10;;;;;;;;;;5125054;28;20277;-76
2023/12/27 01:15:43;;;;;;;0.10;0.10;;;;;;;;;;5114705;28;20246;-76
2023/12/27 01:18:10;;;;;;;0.10;0.10;;;;;;;;;;5124872;28;20205;-75
2023/12/27 01:20:37;;;;;;;0.20;0.20;;;;;;;;;;5114477;28;20240;-75
2023/12/27 01:23:03;;;;;;;0.10;0.10;;;;;;;;;;5124713;28;20268;-76
2023/12/27 01:25:30;;;;;;;0.10;0.10;;;;;;;;;;5114779;28;20612;-76
2023/12/27 01:27:56;;;;;;;0.10;0.10;;;;;;;;;;5124458;28;20471;-76
2023/12/27 01:30:22;;;;;;;0.17;0.17;;;;;;;;;;5114519;28;20196;-76
2023/12/27 01:32:49;;;;;;;0.20;0.20;;;;;;;;;;5124250;28;20237;-76
2023/12/27 01:35:16;;;;;;;0.20;0.20;;;;;;;;;;5114298;28;20234;-76
2023/12/27 01:37:44;;;;;;;0.20;0.20;;;;;;;;;;5124167;28;20213;-75
2023/12/27 01:40:10;;;;;;;0.10;0.10;;;;;;;;;;5114886;28;20240;-75
2023/12/27 01:42:37;;;;;;;0.10;0.10;;;;;;;;;;5123936;28;20468;-76
2023/12/27 01:45:03;;;;;;;0.20;0.20;;;;;;;;;;5125104;28;20375;-76
2023/12/27 01:47:30;;;;;;;0.20;0.20;;;;;;;;;;5112988;28;20300;-76
2023/12/27 01:49:56;;;;;;;0.20;0.20;;;;;;;;;;5124773;28;20280;-76
2023/12/27 01:52:24;;;;;;;0.10;0.10;;;;;;;;;;5113306;28;20260;-77
2023/12/27 01:54:51;;;;;;;0.10;0.10;;;;;;;;;;5124519;28;20259;-76
2023/12/27 01:57:18;;;;;;;0.10;0.10;;;;;;;;;;5113219;28;20256;-75
2023/12/27 01:59:45;;;;;;;0.10;0.10;;;;;;;;;;5124642;28;20230;-75
2023/12/27 02:02:11;;;;;;;0.10;0.10;;;;;;;;;;5112874;28;20245;-75
2023/12/27 02:04:37;;;;;;;0.20;0.20;;;;;;;;;;5124559;28;20230;-76
2023/12/27 02:07:04;;;;;;;0.10;0.10;;;;;;;;;;5112987;28;20238;-75
2023/12/27 02:09:32;;;;;;;0.20;0.20;;;;;;;;;;5124389;28;20312;-76
2023/12/27 02:11:58;;;;;;;0.10;0.10;;;;;;;;;;5112798;28;20244;-76
2023/12/27 02:14:25;;;;;;;0.10;0.10;;;;;;;;;;5124514;28;20269;-76
2023/12/27 02:16:52;;;;;;;0.20;0.20;;;;;;;;;;5112869;28;20313;-76
2023/12/27 02:19:20;;;;;;;0.20;0.20;;;;;;;;;;5124433;28;20508;-76
2023/12/27 02:21:47;;;;;;;0.10;0.10;;;;;;;;;;5112608;28;20296;-75
2023/12/27 02:24:15;;;;;;;0.10;0.10;;;;;;;;;;5124338;28;20454;-75
2023/12/27 02:26:43;;;;;;;0.20;0.20;;;;;;;;;;5112798;28;20431;-76
2023/12/27 02:29:09;;;;;;;0.10;0.10;;;;;;;;;;5123877;28;20297;-76
2023/12/27 02:31:36;;;;;;;0.20;0.20;;;;;;;;;;5112785;28;20323;-76
2023/12/27 02:34:02;;;;;;;0.20;0.20;;;;;;;;;;5124262;28;20236;-76
2023/12/27 02:36:28;;;;;;;0.20;0.20;;;;;;;;;;5112724;28;20301;-76
2023/12/27 02:38:55;;;;;;;0.20;0.20;;;;;;;;;;5123787;28;20272;-76
2023/12/27 02:41:21;;;;;;;0.20;0.20;;;;;;;;;;5112872;28;20238;-76
2023/12/27 02:43:49;;;;;;;0.20;0.20;;;;;;;;;;5123577;28;20211;-76
2023/12/27 02:46:15;;;;;;;0.20;0.20;;;;;;;;;;5115206;28;20649;-76
2023/12/27 02:48:41;;;;;;;0.20;0.20;;;;;;;;;;5128079;28;20293;-75
2023/12/27 02:51:08;;;;;;;0.20;0.20;;;;;;;;;;5117094;28;20253;-76
2023/12/27 02:53:34;;;;;;;0.20;0.20;;;;;;;;;;5127787;28;20392;-76
2023/12/27 02:56:01;;;;;;;0.20;0.20;;;;;;;;;;5117353;28;20238;-76
2023/12/27 02:58:27;;;;;;;0.10;0.10;;;;;;;;;;5127477;28;20289;-76
2023/12/27 03:00:55;;;;;;;0.20;0.20;;;;;;;;;;5117283;28;20565;-76
2023/12/27 03:03:20;;;;;;;0.20;0.20;;;;;;;;;;5127194;28;20246;-76
2023/12/27 03:05:46;;;;;;;0.20;0.20;;;;;;;;;;5117217;28;20240;-76
2023/12/27 03:08:13;;;;;;;0.20;0.20;;;;;;;;;;5127306;28;20256;-75
2023/12/27 03:10:39;;;;;;;0.20;0.20;;;;;;;;;;5117037;28;20329;-76
2023/12/27 03:13:06;;;;;;;0.10;0.10;;;;;;;;;;5127254;28;20275;-76
2023/12/27 03:15:32;;;;;;;0.20;0.20;;;;;;;;;;5116922;28;20244;-76
2023/12/27 03:18:00;;;;;;;0.20;0.20;;;;;;;;;;5127090;28;20205;-76
2023/12/27 03:20:26;;;;;;;0.20;0.20;;;;;;;;;;5117185;28;20657;-75
2023/12/27 03:22:53;;;;;;;0.10;0.10;;;;;;;;;;5127034;28;20253;-76
2023/12/27 03:25:19;;;;;;;0.20;0.20;;;;;;;;;;5116903;28;20287;-75
2023/12/27 03:27:45;;;;;;;0.17;0.17;;;;;;;;;;5126715;28;20204;-76
2023/12/27 03:30:12;;;;;;;0.20;0.20;;;;;;;;;;5117098;28;20251;-75
2023/12/27 03:32:39;;;;;;;0.20;0.20;;;;;;;;;;5126551;28;20240;-76
2023/12/27 03:35:07;;;;;;;0.10;0.10;;;;;;;;;;5127680;28;20205;-75
2023/12/27 03:37:33;;;;;;;0.10;0.10;;;;;;;;;;5098840;28;20431;-76
2023/12/27 03:39:59;;;;;;;0.20;0.20;;;;;;;;;;5127584;28;20254;-76
2023/12/27 03:42:26;;;;;;;0.20;0.20;;;;;;;;;;5115706;28;20502;-76
2023/12/27 03:44:53;;;;;;;0.20;0.20;;;;;;;;;;5127496;28;20232;-76
2023/12/27 03:47:19;;;;;;;0.17;0.17;;;;;;;;;;5115573;28;20239;-75
2023/12/27 03:49:46;;;;;;;0.20;0.20;;;;;;;;;;5127398;28;20253;-75
2023/12/27 03:52:13;;;;;;;0.20;0.20;;;;;;;;;;5115458;28;20271;-75
2023/12/27 03:54:41;;;;;;;0.20;0.20;;;;;;;;;;5127441;28;20276;-76
2023/12/27 03:57:07;;;;;;;0.13;0.13;;;;;;;;;;5115205;28;20243;-75
2023/12/27 03:59:36;;;;;;;0.20;0.20;;;;;;;;;;5127251;28;20200;-76
2023/12/27 04:02:02;;;;;;;0.20;0.20;;;;;;;;;;5115149;28;20237;-76
2023/12/27 04:04:29;;;;;;;0.20;0.20;;;;;;;;;;5126786;28;20288;-76
2023/12/27 04:06:55;;;;;;;0.20;0.20;;;;;;;;;;5115304;28;20280;-75
2023/12/27 04:09:23;;;;;;;0.20;0.20;;;;;;;;;;5126581;28;20294;-75
2023/12/27 04:11:49;;;;;;;0.10;0.10;;;;;;;;;;5115376;28;20306;-76
2023/12/27 04:14:16;;;;;;;0.10;0.10;;;;;;;;;;5126793;28;20238;-75
2023/12/27 04:16:42;;;;;;;0.20;0.20;;;;;;;;;;5115277;28;20241;-75
2023/12/27 04:19:08;;;;;;;0.20;0.20;;;;;;;;;;5126309;28;20226;-75
2023/12/27 04:21:35;;;;;;;0.20;0.20;;;;;;;;;;5115117;28;20237;-75
2023/12/27 04:24:01;;;;;;;0.20;0.20;;;;;;;;;;5126483;28;20211;-76
2023/12/27 04:26:29;;;;;;;0.20;0.20;;;;;;;;;;5115130;28;20320;-75
2023/12/27 04:28:55;;;;;;;0.10;0.10;;;;;;;;;;5125958;28;20228;-76
2023/12/27 04:31:22;;;;;;;0.20;0.20;;;;;;;;;;5115054;28;20240;-76
2023/12/27 04:33:48;;;;;;;0.20;0.20;;;;;;;;;;5125860;28;20204;-76
2023/12/27 04:36:14;;;;;;;0.20;0.20;;;;;;;;;;5115238;28;20246;-75
2023/12/27 04:38:41;;;;;;;0.20;0.20;;;;;;;;;;5125610;28;20227;-76
2023/12/27 04:41:08;;;;;;;0.20;0.20;;;;;;;;;;5115122;28;20247;-74
2023/12/27 04:43:35;;;;;;;0.20;0.20;;;;;;;;;;5125530;28;20242;-76
2023/12/27 04:46:03;;;;;;;0.20;0.20;;;;;;;;;;5115080;28;20590;-76
2023/12/27 04:48:29;;;;;;;0.20;0.20;;;;;;;;;;5125679;28;20442;-75
2023/12/27 04:50:56;;;;;;;0.20;0.20;;;;;;;;;;5115237;28;20288;-75
2023/12/27 04:53:22;;;;;;;0.20;0.20;;;;;;;;;;5125474;28;20199;-76
2023/12/27 04:55:48;;;;;;;0.20;0.20;;;;;;;;;;5115405;28;20302;-75
2023/12/27 04:58:15;;;;;;;0.20;0.20;;;;;;;;;;5125220;28;20203;-76
2023/12/27 05:00:42;;;;;;;0.20;0.20;;;;;;;;;;5115041;28;20308;-74
2023/12/27 05:03:09;;;;;;;0.20;0.20;;;;;;;;;;5124746;28;20230;-75
2023/12/27 05:05:35;;;;;;;0.17;0.17;;;;;;;;;;5115022;28;20516;-75
2023/12/27 05:08:02;;;;;;;0.20;0.20;;;;;;;;;;5124281;28;20401;-76
2023/12/27 05:10:28;;;;;;;0.20;0.20;;;;;;;;;;5114755;28;20229;-75
2023/12/27 05:12:54;;;;;;;0.20;0.20;;;;;;;;;;5124819;28;20445;-75
2023/12/27 05:15:21;;;;;;;0.20;0.20;;;;;;;;;;5114828;28;20206;-75
2023/12/27 05:17:48;;;;;;;0.17;0.17;;;;;;;;;;5124603;28;20203;-76
2023/12/27 05:20:15;;;;;;;0.20;0.20;;;;;;;;;;5114738;28;20232;-75
2023/12/27 05:22:41;;;;;;;0.20;0.20;;;;;;;;;;5124371;28;20207;-75
2023/12/27 05:25:08;;;;;;;0.20;0.20;;;;;;;;;;5125204;28;20230;-75
2023/12/27 05:27:34;;;;;;;0.10;0.10;;;;;;;;;;5096920;28;20234;-76
2023/12/27 05:30:01;;;;;;;0.20;0.20;;;;;;;;;;5125366;28;20262;-76
2023/12/27 05:32:27;;;;;;;0.20;0.20;;;;;;;;;;5113546;28;20313;-76
2023/12/27 05:34:55;;;;;;;0.20;0.20;;;;;;;;;;5125458;28;20202;-75
2023/12/27 05:37:21;;;;;;;0.20;0.20;;;;;;;;;;5113611;28;20297;-76
2023/12/27 05:39:48;;;;;;;0.20;0.20;;;;;;;;;;5124970;28;20262;-76
2023/12/27 05:42:14;;;;;;;0.20;0.20;;;;;;;;;;5113444;28;20300;-75
2023/12/27 05:44:40;;;;;;;0.20;0.20;;;;;;;;;;5125026;28;20273;-75
2023/12/27 05:47:07;;;;;;;0.20;0.20;;;;;;;;;;5113420;28;20238;-75
2023/12/27 05:49:33;;;;;;;0.20;0.20;;;;;;;;;;5124737;28;20235;-75
2023/12/27 05:52:01;;;;;;;0.20;0.20;;;;;;;;;;5113193;28;20241;-75
2023/12/27 05:54:27;;;;;;;0.20;0.20;;;;;;;;;;5124968;28;20209;-75
2023/12/27 05:56:54;;;;;;;0.20;0.20;;;;;;;;;;5113186;28;20247;-75
2023/12/27 05:59:20;;;;;;;0.20;0.20;;;;;;;;;;5124776;28;20270;-75
2023/12/27 06:01:47;;;;;;;0.20;0.20;;;;;;;;;;5113180;28;20262;-76
2023/12/27 06:04:15;;;;;;;0.20;0.20;;;;;;;;;;5124207;28;20239;-75
2023/12/27 06:06:41;;;;;;;0.10;0.10;;;;;;;;;;5113155;28;20241;-75
2023/12/27 06:09:10;;;;;;;0.20;0.20;;;;;;;;;;5124475;28;20234;-74
2023/12/27 06:11:37;;;;;;;0.20;0.20;;;;;;;;;;5113270;28;20555;-75
2023/12/27 06:14:03;;;;;;;0.20;0.20;;;;;;;;;;5124001;28;20202;-75
2023/12/27 06:16:30;;;;;;;0.20;0.20;;;;;;;;;;5113299;28;20277;-75
2023/12/27 06:18:57;;;;;;;0.20;0.20;;;;;;;;;;5123993;28;20236;-76
2023/12/27 06:21:24;;;;;;;0.20;0.20;;;;;;;;;;5112198;28;20444;-76
2023/12/27 06:23:50;;;;;;;0.20;0.20;;;;;;;;;;5123893;28;20235;-76
2023/12/27 06:26:18;;;;;;;0.20;0.20;;;;;;;;;;5113011;28;20269;-75
2023/12/27 06:28:45;;;;;;;0.20;0.20;;;;;;;;;;5123943;28;20451;-75
2023/12/27 06:31:11;;;;;;;0.20;0.20;;;;;;;;;;5113072;28;20240;-75
2023/12/27 06:33:37;;;;;;;0.20;0.20;;;;;;;;;;5123944;28;20390;-75
2023/12/27 06:36:05;;;;;;;0.20;0.20;;;;;;;;;;5112862;28;20247;-75
2023/12/27 06:38:31;;;;;;;0.20;0.20;;;;;;;;;;5123485;28;20266;-75
2023/12/27 06:41:00;;;;;;;0.20;0.20;;;;;;;;;;5113050;28;20294;-75
2023/12/27 06:43:28;;;;;;;0.20;0.20;;;;;;;;;;5123652;28;20234;-75
2023/12/27 06:45:54;;;;;;;0.20;0.20;;;;;;;;;;5113225;28;20243;-76
2023/12/27 06:48:21;;;;;;;0.20;0.20;;;;;;;;;;5123233;28;20255;-75
2023/12/27 06:50:48;;;;;;;0.20;0.20;;;;;;;;;;5112984;28;20306;-75
2023/12/27 06:53:15;;;;;;;0.20;0.20;;;;;;;;;;5123330;28;20211;-75
2023/12/27 06:55:41;;;;;;;0.20;0.20;;;;;;;;;;5113149;28;20242;-76
2023/12/27 06:58:08;;;;;;;0.20;0.20;;;;;;;;;;5123145;28;20239;-75
2023/12/27 07:00:38;;;;;;;0.20;0.20;;;;;;;;;;5113131;28;20279;-76
2023/12/27 07:03:05;;;;;;;0.20;0.20;;;;;;;;;;5122782;28;20242;-75
2023/12/27 07:05:31;;;;;;;0.20;0.20;;;;;;;;;;5113009;28;20303;-76
2023/12/27 07:07:57;;;;;;;0.20;0.20;;;;;;;;;;5123211;28;20194;-76
2023/12/27 07:10:24;;;;;;;0.20;0.20;;;;;;;;;;5113008;28;20219;-75
2023/12/27 07:12:50;;;;;;;0.10;0.10;;;;;;;;;;5122732;28;20278;-76
2023/12/27 07:15:16;;;;;;;0.20;0.20;;;;;;;;;;5113119;28;20270;-75
2023/12/27 07:17:44;;;;;;;0.20;0.20;;;;;;;;;;5122878;28;20234;-75
2023/12/27 07:20:11;;;;;;;0.20;0.20;;;;;;;;;;5113422;28;20448;-75
2023/12/27 07:22:37;;;;;;;0.20;0.20;;;;;;;;;;5122704;28;20198;-75
2023/12/27 07:25:04;;;;;;;0.20;0.20;;;;;;;;;;5124031;28;20245;-75
2023/12/27 07:27:31;;;;;;;0.20;0.20;;;;;;;;;;5111824;28;20244;-74
2023/12/27 07:29:57;;;;;;;0.20;0.20;;;;;;;;;;5123615;28;20251;-76
2023/12/27 07:32:24;;;;;;;0.20;0.20;;;;;;;;;;5114451;28;20348;-75
2023/12/27 07:34:57;;;;;;;0.20;0.20;;;;;;;;;;5127531;28;20238;-75
2023/12/27 07:37:23;;;;;;;0.20;0.20;;;;;;;;;;5115795;28;20493;-75
2023/12/27 07:39:50;;;;;;;0.20;0.20;;;;;;;;;;5127710;28;20199;-76
2023/12/27 07:42:16;;;;;;;0.20;0.20;;;;;;;;;;5115734;28;20287;-75
2023/12/27 07:44:43;;;;;;;0.20;0.20;;;;;;;;;;5127089;28;20233;-76
2023/12/27 07:47:09;;;;;;;0.20;0.20;;;;;;;;;;5115665;28;20324;-75
2023/12/27 07:49:36;;;;;;;0.30;0.30;;;;;;;;;;5127470;28;20262;-75
2023/12/27 07:52:04;;;;;;;0.20;0.20;;;;;;;;;;5115548;28;20580;-75
2023/12/27 07:54:31;;;;;;;0.20;0.20;;;;;;;;;;5127304;28;20395;-76
2023/12/27 07:56:57;;;;;;;0.20;0.20;;;;;;;;;;5115594;28;20319;-75
2023/12/27 07:59:24;;;;;;;0.20;0.20;;;;;;;;;;5126861;28;20274;-75
2023/12/27 08:01:51;;;;;;;0.20;0.20;;;;;;;;;;5115647;28;20237;-75
2023/12/27 08:04:17;;;;;;;0.20;0.20;;;;;;;;;;5126560;28;20228;-75
2023/12/27 08:06:45;;;;;;;0.20;0.20;;;;;;;;;;5115519;28;20266;-74
2023/12/27 08:09:13;;;;;;;0.20;0.20;;;;;;;;;;5126849;28;20396;-75
2023/12/27 08:11:39;;;;;;;0.20;0.20;;;;;;;;;;5115284;28;20289;-75
2023/12/27 08:14:06;;;;;;;0.20;0.20;;;;;;;;;;5126750;28;20241;-75
2023/12/27 08:16:32;;;;;;;0.20;0.20;;;;;;;;;;5115545;28;20247;-75
2023/12/27 08:18:58;;;;;;;0.20;0.20;;;;;;;;;;5126271;28;20208;-80
2023/12/27 08:21:25;;;;;;;0.20;0.20;;;;;;;;;;5115356;28;20243;-75
2023/12/27 08:23:53;;;;;;;0.20;0.20;;;;;;;;;;5126531;28;20419;-78
2023/12/27 08:26:20;;;;;;;0.20;0.20;;;;;;;;;;5115590;28;20476;-77
2023/12/27 08:28:47;;;;;;;0.20;0.20;;;;;;;;;;5126158;28;20212;-78
2023/12/27 08:31:13;;;;;;;0.20;0.20;;;;;;;;;;5115233;28;20244;-70
2023/12/27 08:33:40;;;;;;;4.27;3.93;;;;;;;;;;5125780;28;20294;-80
2023/12/27 08:36:06;;;;;;;0.20;0.20;;;;;;;;;;5115573;28;20252;-80
2023/12/27 08:38:33;;;;;;;0.23;0.23;;;;;;;;;;5125703;28;20201;-79
2023/12/27 08:40:59;;;;;;;0.30;0.30;;;;;;;;;;5115221;28;20241;-78
2023/12/27 08:43:29;;;;;;;0.20;0.20;;;;;;;;;;5124542;28;20234;-78
2023/12/27 08:45:56;;;;;;;0.20;0.20;;;;;;;;;;5115282;28;20241;-78
2023/12/27 08:48:22;;;;;;;0.20;0.20;;;;;;;;;;5125654;28;20425;-78
2023/12/27 08:50:49;;;;;;;0.10;0.10;;;;;;;;;;5115131;28;20257;-78
2023/12/27 08:53:15;;;;;;;0.30;0.30;;;;;;;;;;5125245;28;20266;-78
2023/12/27 08:55:42;;;;;;;0.20;0.20;;;;;;;;;;5115099;28;20300;-78
2023/12/27 08:58:09;;;;;;;0.17;0.17;;;;;;;;;;5125265;28;20243;-77
2023/12/27 09:00:37;;;;;;;0.30;0.30;;;;;;;;;;5115118;28;20484;-78
2023/12/27 09:03:04;;;;;;;0.10;0.10;;;;;;;;;;5124946;28;20213;-78
2023/12/27 09:05:31;;;;;;;0.20;0.20;;;;;;;;;;5115045;28;20252;-78
2023/12/27 09:07:57;;;;;;;0.10;0.10;;;;;;;;;;5125086;28;20245;-78
2023/12/27 09:10:24;;;;;;;0.20;0.20;;;;;;;;;;5114949;28;20294;-78
2023/12/27 09:12:50;;;;;;;0.20;0.20;;;;;;;;;;5124960;28;20234;-78
2023/12/27 09:15:17;;;;;;;0.20;0.20;;;;;;;;;;5114818;28;20265;-78
2023/12/27 09:17:45;;;;;;;0.10;0.10;;;;;;;;;;5124542;28;20225;-78
2023/12/27 09:20:11;;;;;;;1.17;1.17;;;;;;;;;;5114816;28;20204;-76
2023/12/27 09:22:38;;;;;;;0.17;0.17;;;;;;;;;;5124579;28;20455;-77
2023/12/27 09:25:05;;;;;;;0.20;0.20;;;;;;;;;;5125382;28;20194;-77
2023/12/27 09:27:32;;;;;;;0.13;0.13;;;;;;;;;;5113884;28;20263;-77
2023/12/27 09:29:58;;;;;;;0.13;0.13;;;;;;;;;;5125586;28;20236;-77
2023/12/27 09:32:24;;;;;;;0.10;0.10;;;;;;;;;;5113522;28;20303;-76
2023/12/27 09:34:52;;;;;;;0.20;0.20;;;;;;;;;;5125548;28;20392;-76
2023/12/27 09:37:18;;;;;;;0.10;0.10;;;;;;;;;;5113728;28;20262;-76
2023/12/27 09:39:45;;;;;;;0.10;0.10;;;;;;;;;;5125370;28;20212;-76
2023/12/27 09:42:12;;;;;;;0.10;0.10;;;;;;;;;;5113417;28;20244;-76
2023/12/27 09:44:39;;;;;;;0.10;0.10;;;;;;;;;;5125332;28;20391;-76
2023/12/27 09:47:06;;;;;;;0.10;0.10;;;;;;;;;;5113564;28;20245;-76
2023/12/27 09:49:32;;;;;;;0.10;0.10;;;;;;;;;;5124882;28;20237;-76
2023/12/27 09:52:01;;;;;;;0.10;0.10;;;;;;;;;;5113244;28;20243;-76
2023/12/27 09:54:27;;;;;;;0.10;0.10;;;;;;;;;;5124509;28;20206;-76
2023/12/27 09:56:54;;;;;;;0.10;0.10;;;;;;;;;;5113456;28;20485;-77
2023/12/27 09:59:28;;;;;;;0.10;0.10;;;;;;;;;;5124472;28;20202;-77
2023/12/27 10:01:59;;;;;;;0.10;0.10;;;;;;;;;;5113429;28;20315;-77
2023/12/27 10:04:31;;;;;;;0.17;0.17;;;;;;;;;;5124471;28;20225;-77
2023/12/27 10:06:58;;;;;;;0.10;0.10;;;;;;;;;;5113390;28;20337;-76
2023/12/27 10:09:26;;;;;;;0.10;0.10;;;;;;;;;;5124758;28;20270;-76
2023/12/27 10:11:52;;;;;;;0.10;0.10;;;;;;;;;;5113285;28;20492;-78
2023/12/27 10:14:19;;;;;;;0.10;0.10;;;;;;;;;;5124713;28;20463;-78
2023/12/27 10:16:45;;;;;;;0.10;0.10;;;;;;;;;;5113368;28;20260;-78
2023/12/27 10:19:26;;;;;;;0.10;0.10;;;;;;;;;;5124367;28;20210;-78
2023/12/27 10:21:53;;;;;;;0.10;0.10;;;;;;;;;;5112393;28;20483;-78
2023/12/27 10:24:19;;;;;;;0.10;0.10;;;;;;;;;;5124155;28;20207;-78
2023/12/27 10:26:47;;;;;;;0.10;0.10;;;;;;;;;;5113314;28;20240;-78
2023/12/27 10:29:17;;;;;;;0.10;0.10;;;;;;;;;;5124331;28;20513;-79
2023/12/27 10:31:43;;;;;;;0.10;0.10;;;;;;;;;;5113393;28;20473;-79
2023/12/27 10:34:09;;;;;;;0.10;0.10;;;;;;;;;;5124563;28;20202;-78
2023/12/27 10:36:39;;;;;;;0.10;0.10;;;;;;;;;;5112954;28;20300;-78
2023/12/27 10:39:06;;;;;;;0.10;0.10;;;;;;;;;;5124371;28;20241;-79
2023/12/27 10:41:32;;;;;;;0.10;0.10;;;;;;;;;;5113381;28;20240;-78
2023/12/27 10:44:00;;;;;;;0.10;0.10;;;;;;;;;;5124205;28;20274;-79
2023/12/27 10:46:26;;;;;;;0.10;0.10;;;;;;;;;;5113151;28;20262;-78
2023/12/27 10:48:56;;;;;;;0.10;0.10;;;;;;;;;;5123639;28;20204;-77
2023/12/27 10:51:24;;;;;;;0.10;0.10;;;;;;;;;;5112571;28;20251;-77
2023/12/27 10:53:50;;;;;;;0.10;0.10;;;;;;;;;;5123569;28;20210;-78
2023/12/27 10:56:20;;;;;;;0.10;0.10;;;;;;;;;;5113059;28;20329;-77
2023/12/27 10:58:48;;;;;;;0.10;0.10;;;;;;;;;;5123491;28;20230;-77
2023/12/27 11:01:16;;;;;;;0.10;0.10;;;;;;;;;;5112864;28;20238;-77
2023/12/27 11:03:43;;;;;;;0.10;0.10;;;;;;;;;;5123239;28;20259;-77
2023/12/27 11:06:10;;;;;;;0.10;0.10;;;;;;;;;;5113182;28;20452;-77
2023/12/27 11:08:39;;;;;;;0.10;0.10;;;;;;;;;;5127166;28;20202;-78
2023/12/27 11:11:06;;;;;;;0.10;0.10;;;;;;;;;;5116934;28;20482;-77
2023/12/27 11:13:33;;;;;;;0.10;0.10;;;;;;;;;;5127365;28;20243;-78
2023/12/27 11:16:01;;;;;;;0.10;0.10;;;;;;;;;;5116757;28;20241;-77
2023/12/27 11:18:31;;;;;;;0.10;0.10;;;;;;;;;;5127458;28;20233;-78
2023/12/27 11:20:57;;;;;;;0.10;0.10;;;;;;;;;;5116874;28;20238;-77
2023/12/27 11:23:24;;;;;;;0.10;0.10;;;;;;;;;;5127042;28;20230;-77
2023/12/27 11:25:50;;;;;;;0.10;0.10;;;;;;;;;;5117034;28;20244;-78
2023/12/27 11:28:17;;;;;;;0.10;0.10;;;;;;;;;;5126983;28;20212;-77
2023/12/27 11:30:46;;;;;;;0.10;0.10;;;;;;;;;;5116576;28;20303;-77
2023/12/27 11:33:17;;;;;;;0.10;0.10;;;;;;;;;;5126846;28;20215;-77
2023/12/27 11:35:46;;;;;;;0.10;0.10;;;;;;;;;;5116616;28;20248;-77
2023/12/27 11:38:13;;;;;;;0.10;0.10;;;;;;;;;;5126867;28;20279;-77
2023/12/27 11:40:40;;;;;;;0.10;0.10;;;;;;;;;;5116628;28;20497;-77
2023/12/27 11:43:07;;;;;;;0.10;0.10;;;;;;;;;;5126703;28;20212;-77
2023/12/27 11:45:48;;;;;;;0.10;0.10;;;;;;;;;;5116701;28;20448;-77
2023/12/27 11:48:16;;;;;;;0.10;0.10;;;;;;;;;;5126384;28;20234;-77
2023/12/27 11:50:45;;;;;;;0.10;0.10;;;;;;;;;;5116581;28;20259;-77
2023/12/27 11:53:11;;;;;;;0.10;0.10;;;;;;;;;;5126422;28;20209;-77
2023/12/27 11:55:38;;;;;;;0.10;0.10;;;;;;;;;;5116554;28;20260;-77
2023/12/27 11:58:04;;;;;;;0.10;0.10;;;;;;;;;;5126439;28;20390;-77
2023/12/27 12:00:31;;;;;;;0.17;0.17;;;;;;;;;;5116251;28;20274;-77
2023/12/27 12:02:58;;;;;;;0.20;0.20;;;;;;;;;;5125992;28;20217;-77
2023/12/27 12:05:36;;;;;;;0.10;0.10;;;;;;;;;;5116216;28;20295;-77
2023/12/27 12:08:09;;;;;;;0.10;0.10;;;;;;;;;;5126215;28;20234;-77
2023/12/27 12:10:35;;;;;;;0.10;0.10;;;;;;;;;;5116184;28;20239;-77
2023/12/27 12:13:02;;;;;;;0.10;0.10;;;;;;;;;;5126166;28;20205;-77
2023/12/27 12:15:30;;;;;;;0.10;0.10;;;;;;;;;;5116221;28;20402;-77
2023/12/27 12:17:57;;;;;;;0.10;0.10;;;;;;;;;;5124544;28;20209;-77
2023/12/27 12:20:23;;;;;;;0.10;0.10;;;;;;;;;;5115996;28;20260;-77
2023/12/27 12:22:50;;;;;;;0.10;0.10;;;;;;;;;;5125830;28;20200;-77
2023/12/27 12:25:23;;;;;;;0.10;0.10;;;;;;;;;;5115740;28;20271;-77
2023/12/27 12:27:49;;;;;;;0.10;0.10;;;;;;;;;;5125729;28;20207;-76
2023/12/27 12:30:16;;;;;;;0.10;0.10;;;;;;;;;;5115748;28;20244;-77
2023/12/27 12:32:42;;;;;;;0.10;0.10;;;;;;;;;;5125509;28;20256;-77
2023/12/27 12:35:09;;;;;;;0.17;0.17;;;;;;;;;;5121864;28;20235;-77
2023/12/27 12:37:36;;;;;;;0.20;0.20;;;;;;;;;;5125191;28;20222;-77
2023/12/27 12:40:04;;;;;;;0.20;0.20;;;;;;;;;;5126474;28;20559;-76
2023/12/27 12:42:34;;;;;;;0.10;0.10;;;;;;;;;;5114644;28;20238;-77
2023/12/27 12:45:00;;;;;;;0.20;0.20;;;;;;;;;;5126087;28;20261;-76
2023/12/27 12:47:27;;;;;;;0.17;0.17;;;;;;;;;;5114640;28;20241;-77
2023/12/27 12:49:53;;;;;;;0.10;0.10;;;;;;;;;;5126256;28;20211;-77
2023/12/27 12:52:20;;;;;;;0.10;0.10;;;;;;;;;;5114429;28;20264;-77
2023/12/27 12:54:48;;;;;;;0.10;0.10;;;;;;;;;;5125802;28;20198;-76
2023/12/27 12:57:15;;;;;;;0.10;0.10;;;;;;;;;;5114637;28;20238;-77
2023/12/27 12:59:43;;;;;;;0.20;0.20;;;;;;;;;;5126045;28;20278;-77
2023/12/27 13:02:10;;;;;;;0.10;0.10;;;;;;;;;;5114188;28;20471;-77
2023/12/27 13:04:36;;;;;;;0.20;0.20;;;;;;;;;;5125695;28;20222;-78
2023/12/27 13:07:05;;;;;;;0.10;0.10;;;;;;;;;;5114128;28;20235;-77
2023/12/27 13:09:31;;;;;;;0.10;0.10;;;;;;;;;;5125624;28;20199;-77
2023/12/27 13:11:58;;;;;;;0.20;0.20;;;;;;;;;;5114284;28;20300;-77
2023/12/27 13:14:24;;;;;;;0.20;0.20;;;;;;;;;;5125591;28;20209;-77
2023/12/27 13:16:52;;;;;;;0.13;0.13;;;;;;;;;;5114177;28;20239;-77
2023/12/27 13:19:19;;;;;;;0.10;0.10;;;;;;;;;;5125194;28;20202;-77
2023/12/27 13:21:45;;;;;;;0.10;0.10;;;;;;;;;;5114090;28;20301;-77
2023/12/27 13:24:11;;;;;;;0.10;0.10;;;;;;;;;;5125170;28;20273;-78
2023/12/27 13:26:38;;;;;;;0.20;0.20;;;;;;;;;;5114103;28;20263;-77
2023/12/27 13:29:04;;;;;;;0.13;0.13;;;;;;;;;;5124834;28;20425;-77
2023/12/27 13:31:31;;;;;;;0.10;0.10;;;;;;;;;;5113957;28;20238;-76
2023/12/27 13:33:59;;;;;;;0.13;0.13;;;;;;;;;;5125156;28;20230;-76
2023/12/27 13:36:28;;;;;;;0.13;0.13;;;;;;;;;;5113860;28;20287;-77
2023/12/27 13:38:54;;;;;;;0.10;0.10;;;;;;;;;;5125050;28;20230;-77
2023/12/27 13:41:21;;;;;;;0.10;0.10;;;;;;;;;;5113635;28;20242;-77
2023/12/27 13:43:47;;;;;;;0.20;0.20;;;;;;;;;;5124902;28;20249;-77
2023/12/27 13:46:13;;;;;;;0.10;0.10;;;;;;;;;;5113645;28;20239;-77
2023/12/27 13:48:40;;;;;;;0.20;0.20;;;;;;;;;;5124427;28;20246;-77
2023/12/27 13:51:08;;;;;;;0.10;0.10;;;;;;;;;;5113911;28;20256;-77
2023/12/27 13:53:35;;;;;;;0.10;0.10;;;;;;;;;;5124523;28;20203;-77
2023/12/27 13:56:01;;;;;;;0.10;0.10;;;;;;;;;;5113598;28;20260;-77
2023/12/27 13:58:28;;;;;;;0.10;0.10;;;;;;;;;;5124107;28;20222;-77
2023/12/27 14:00:55;;;;;;;0.10;0.10;;;;;;;;;;5113776;28;20253;-78
2023/12/27 14:03:21;;;;;;;0.10;0.10;;;;;;;;;;5123954;28;20247;-77
2023/12/27 14:05:48;;;;;;;0.10;0.10;;;;;;;;;;5113818;28;20617;-77
2023/12/27 14:08:15;;;;;;;0.10;0.10;;;;;;;;;;5124063;28;20451;-77
2023/12/27 14:10:50;;;;;;;0.10;0.10;;;;;;;;;;5113921;28;20240;-77
2023/12/27 14:13:18;;;;;;;0.20;0.20;;;;;;;;;;5124090;28;20269;-78
2023/12/27 14:15:44;;;;;;;0.10;0.10;;;;;;;;;;5113450;28;20243;-77
2023/12/27 14:18:10;;;;;;;0.10;0.10;;;;;;;;;;5123942;28;20202;-77
2023/12/27 14:20:37;;;;;;;0.10;0.10;;;;;;;;;;5113672;28;20239;-78
2023/12/27 14:23:04;;;;;;;0.10;0.10;;;;;;;;;;5123801;28;20218;-77
2023/12/27 14:25:35;;;;;;;0.10;0.10;;;;;;;;;;5113995;28;20455;-79
2023/12/27 14:28:01;;;;;;;0.10;0.10;;;;;;;;;;5123785;28;20207;-76
2023/12/27 14:30:31;;;;;;;0.20;0.20;;;;;;;;;;5113487;28;20559;-79
2023/12/27 14:32:57;;;;;;;0.20;0.20;;;;;;;;;;5123859;28;20443;-80
2023/12/27 14:35:24;;;;;;;0.10;0.10;;;;;;;;;;5113261;28;20202;-80
2023/12/27 14:37:50;;;;;;;0.10;0.10;;;;;;;;;;5123764;28;20229;-79
2023/12/27 14:40:17;;;;;;;0.20;0.20;;;;;;;;;;5113433;28;20203;-77
2023/12/27 14:42:45;;;;;;;0.20;0.20;;;;;;;;;;5122764;28;20440;-77